createdAt,value
2018-03-29T00:00:34.157Z,98.97
2018-03-29T00:03:03.611Z,98.60
2018-03-29T00:05:32.131Z,98.32
2018-03-29T00:08:00.634Z,98.58
2018-03-29T00:10:29.169Z,98.79
2018-03-29T00:12:57.681Z,98.28
2018-03-29T00:15:27.183Z,98.49
2018-03-29T00:17:57.771Z,98.72
2018-03-29T00:20:27.216Z,99.56
2018-03-29T00:22:55.754Z,100.00
2018-03-29T00:25:24.306Z,99.99
2018-03-29T00:28:03.817Z,100.00
2018-03-29T00:30:32.339Z,100.00
2018-03-29T00:33:00.877Z,100.00
2018-03-29T00:35:30.497Z,100.00
2018-03-29T00:38:13.561Z,100.00
2018-03-29T00:40:42.077Z,100.00
2018-03-29T00:43:11.510Z,100.00
2018-03-29T00:45:40.086Z,100.00
2018-03-29T00:48:30.940Z,99.78
2018-03-29T00:51:10.259Z,99.70
2018-03-29T00:53:44.732Z,99.55
2018-03-29T00:56:14.137Z,99.11
2018-03-29T00:58:42.791Z,99.08
2018-03-29T01:01:11.297Z,99.30
2018-03-29T01:03:39.807Z,99.43
2018-03-29T01:06:08.330Z,99.76
2018-03-29T01:08:36.854Z,99.62
2018-03-29T01:11:05.509Z,99.04
2018-03-29T01:13:33.990Z,99.24
2018-03-29T01:16:02.507Z,98.75
2018-03-29T01:18:31.028Z,98.86
2018-03-29T01:21:08.327Z,99.24
2018-03-29T01:23:37.765Z,99.35
2018-03-29T01:26:06.273Z,99.48
2018-03-29T01:28:34.796Z,98.91
2018-03-29T01:31:10.270Z,99.36
2018-03-29T01:33:40.998Z,99.10
2018-03-29T01:36:14.889Z,98.54
2018-03-29T01:38:43.413Z,99.09
2018-03-29T01:41:25.310Z,99.42
2018-03-29T01:44:05.566Z,99.82
2018-03-29T01:46:34.078Z,100.00
2018-03-29T01:49:11.078Z,99.73
2018-03-29T01:51:40.576Z,99.06
2018-03-29T01:54:30.343Z,96.37
2018-03-29T01:57:07.577Z,97.27
2018-03-29T01:59:36.122Z,98.10
2018-03-29T02:02:29.878Z,98.28
2018-03-29T02:05:12.670Z,98.93
2018-03-29T02:07:41.209Z,99.18
2018-03-29T02:10:09.710Z,98.76
2018-03-29T02:12:38.266Z,99.16
2018-03-29T02:15:06.818Z,99.20
2018-03-29T02:17:35.341Z,98.96
2018-03-29T02:20:03.841Z,99.20
2018-03-29T02:22:36.454Z,98.42
2018-03-29T02:25:04.983Z,98.48
2018-03-29T02:27:35.414Z,98.61
2018-03-29T02:30:03.923Z,98.60
2018-03-29T02:32:51.243Z,98.57
2018-03-29T02:35:37.233Z,97.99
2018-03-29T02:38:05.872Z,98.26
2018-03-29T02:40:36.637Z,98.19
2018-03-29T02:43:05.167Z,98.21
2018-03-29T02:45:46.404Z,98.62
2018-03-29T02:48:16.948Z,98.48
2018-03-29T02:50:51.340Z,98.74
2018-03-29T02:53:20.758Z,97.36
2018-03-29T02:55:51.237Z,97.28
2018-03-29T02:58:37.293Z,96.70
2018-03-29T03:01:05.802Z,96.84
2018-03-29T03:03:50.777Z,97.41
2018-03-29T03:06:19.306Z,98.46
2018-03-29T03:08:53.486Z,99.43
2018-03-29T03:11:50.858Z,99.83
2018-03-29T03:14:19.384Z,100.00
2018-03-29T03:16:49.850Z,99.93
2018-03-29T03:19:25.923Z,99.90
2018-03-29T03:21:54.442Z,100.00
2018-03-29T03:24:22.995Z,100.00
2018-03-29T03:26:51.485Z,100.00
2018-03-29T03:29:20.011Z,100.00
2018-03-29T03:31:48.534Z,100.00
2018-03-29T03:34:17.046Z,100.00
2018-03-29T03:36:50.959Z,100.00
2018-03-29T03:39:37.354Z,100.00
2018-03-29T03:42:05.886Z,100.00
2018-03-29T03:44:51.921Z,100.00
2018-03-29T03:47:30.176Z,100.00
2018-03-29T03:49:58.757Z,99.97
2018-03-29T03:52:27.269Z,99.97
2018-03-29T03:54:55.786Z,100.00
2018-03-29T03:57:24.298Z,99.34
2018-03-29T03:59:52.991Z,99.79
2018-03-29T04:02:21.631Z,100.00
2018-03-29T04:04:50.982Z,100.00
2018-03-29T04:07:23.253Z,100.00
2018-03-29T04:09:51.785Z,100.00
2018-03-29T04:12:20.397Z,99.80
2018-03-29T04:14:48.915Z,99.99
2018-03-29T04:17:48.592Z,99.71
2018-03-29T04:20:20.881Z,99.72
2018-03-29T04:22:49.535Z,98.89
2018-03-29T04:25:36.971Z,99.20
2018-03-29T04:28:05.486Z,98.44
2018-03-29T04:30:37.743Z,98.33
2018-03-29T04:33:06.393Z,98.64
2018-03-29T04:35:58.072Z,97.62
2018-03-29T04:38:47.623Z,97.55
2018-03-29T04:41:21.478Z,98.03
2018-03-29T04:43:50.007Z,98.32
2018-03-29T04:46:26.958Z,98.85
2018-03-29T04:48:55.502Z,98.51
2018-03-29T04:51:24.010Z,98.91
2018-03-29T04:53:52.888Z,99.47
2018-03-29T04:56:48.333Z,99.72
2018-03-29T04:59:17.016Z,99.16
2018-03-29T05:01:45.571Z,99.14
2018-03-29T05:04:48.798Z,98.81
2018-03-29T05:07:25.425Z,98.06
2018-03-29T05:09:54.144Z,98.24
2018-03-29T05:12:25.659Z,97.99
2018-03-29T05:14:54.177Z,97.61
2018-03-29T05:17:45.079Z,98.06
2018-03-29T05:20:14.118Z,97.85
2018-03-29T05:22:43.554Z,96.29
2018-03-29T05:25:37.326Z,97.16
2018-03-29T05:28:23.838Z,96.94
2018-03-29T05:30:52.535Z,96.56
2018-03-29T05:33:21.025Z,96.31
2018-03-29T05:35:49.538Z,96.19
2018-03-29T05:38:18.153Z,96.16
2018-03-29T05:40:46.744Z,96.71
2018-03-29T05:43:15.215Z,96.20
2018-03-29T05:45:45.634Z,96.48
2018-03-29T05:48:15.056Z,96.43
2018-03-29T05:50:45.468Z,94.50
2018-03-29T05:53:31.086Z,94.84
2018-03-29T05:55:59.577Z,94.40
2018-03-29T05:58:38.179Z,93.26
2018-03-29T06:01:10.830Z,92.99
2018-03-29T06:04:02.749Z,92.94
2018-03-29T06:06:56.277Z,91.81
2018-03-29T06:09:24.777Z,91.36
2018-03-29T06:12:10.012Z,92.01
2018-03-29T06:14:47.118Z,91.07
2018-03-29T06:17:21.430Z,88.40
2018-03-29T06:19:50.019Z,89.09
2018-03-29T06:22:18.538Z,87.01
2018-03-29T06:24:48.492Z,86.92
2018-03-29T06:27:17.146Z,83.96
2018-03-29T06:29:45.890Z,83.18
2018-03-29T06:32:16.504Z,83.16
2018-03-29T06:34:45.010Z,82.44
2018-03-29T06:37:14.118Z,82.09
2018-03-29T06:39:42.661Z,80.84
2018-03-29T06:42:18.984Z,79.97
2018-03-29T06:44:47.526Z,78.81
2018-03-29T06:47:22.231Z,79.46
2018-03-29T06:49:50.759Z,79.70
2018-03-29T06:52:36.121Z,77.22
2018-03-29T06:55:05.164Z,76.99
2018-03-29T06:57:33.680Z,76.46
2018-03-29T07:00:03.331Z,74.77
2018-03-29T07:02:41.128Z,75.35
2018-03-29T07:05:22.950Z,73.93
2018-03-29T07:07:52.380Z,73.75
2018-03-29T07:10:42.790Z,71.35
2018-03-29T07:13:12.421Z,73.31
2018-03-29T07:15:41.839Z,72.10
2018-03-29T07:18:21.213Z,72.59
2018-03-29T07:20:49.721Z,71.72
2018-03-29T07:23:32.666Z,73.26
2018-03-29T07:26:03.463Z,73.87
2018-03-29T07:28:41.635Z,72.83
2018-03-29T07:31:12.381Z,71.46
2018-03-29T07:33:40.890Z,73.06
2018-03-29T07:36:20.589Z,71.19
2018-03-29T07:38:49.329Z,72.28
2018-03-29T07:41:17.854Z,69.94
2018-03-29T07:43:47.318Z,73.24
2018-03-29T07:46:15.824Z,70.41
2018-03-29T07:48:46.166Z,70.19
2018-03-29T07:51:19.032Z,71.41
2018-03-29T07:53:47.546Z,68.97
2018-03-29T07:56:16.066Z,67.58
2018-03-29T07:58:44.603Z,67.10
2018-03-29T08:01:40.874Z,65.26
2018-03-29T08:04:13.105Z,67.19
2018-03-29T08:06:41.626Z,66.80
2018-03-29T08:09:13.816Z,66.60
2018-03-29T08:11:42.826Z,68.68
2018-03-29T08:14:11.347Z,68.29
2018-03-29T08:16:41.767Z,66.98
2018-03-29T08:19:10.719Z,69.44
2018-03-29T08:21:41.227Z,68.17
2018-03-29T08:24:26.045Z,67.34
2018-03-29T08:26:55.662Z,68.36
2018-03-29T08:29:24.177Z,65.58
2018-03-29T08:31:54.682Z,65.51
2018-03-29T08:34:26.621Z,64.68
2018-03-29T08:37:16.795Z,64.29
2018-03-29T08:39:46.010Z,64.14
2018-03-29T08:42:30.391Z,64.45
2018-03-29T08:45:03.417Z,63.28
2018-03-29T08:47:31.934Z,63.84
2018-03-29T08:50:08.093Z,64.75
2018-03-29T08:52:36.642Z,62.42
2018-03-29T08:55:19.234Z,61.60
2018-03-29T08:57:47.748Z,62.70
2018-03-29T09:00:29.737Z,63.80
2018-03-29T09:02:59.285Z,62.52
2018-03-29T09:05:31.122Z,63.24
2018-03-29T09:07:59.617Z,61.53
2018-03-29T09:10:31.713Z,61.25
2018-03-29T09:13:05.855Z,60.84
2018-03-29T09:15:34.382Z,58.21
2018-03-29T09:18:15.686Z,57.72
2018-03-29T09:20:45.042Z,57.53
2018-03-29T09:23:22.318Z,56.91
2018-03-29T09:25:57.926Z,60.46
2018-03-29T09:28:29.697Z,59.90
2018-03-29T09:31:18.228Z,61.49
2018-03-29T09:33:47.150Z,62.37
2018-03-29T09:36:15.729Z,61.63
2018-03-29T09:38:45.076Z,61.27
2018-03-29T09:41:20.978Z,58.32
2018-03-29T09:43:52.611Z,56.04
2018-03-29T09:46:21.162Z,58.96
2018-03-29T09:48:59.227Z,56.12
2018-03-29T09:51:27.730Z,54.01
2018-03-29T09:54:10.919Z,49.57
2018-03-29T09:56:39.450Z,54.15
2018-03-29T09:59:11.584Z,49.02
2018-03-29T10:01:44.458Z,51.57
2018-03-29T10:04:30.132Z,47.90
2018-03-29T10:07:34.710Z,48.42
2018-03-29T10:10:10.207Z,43.73
2018-03-29T10:12:39.002Z,48.12
2018-03-29T10:15:29.409Z,46.38
2018-03-29T10:17:57.938Z,42.93
2018-03-29T10:20:30.654Z,48.74
2018-03-29T10:23:01.115Z,43.72
2018-03-29T10:25:30.755Z,49.91
2018-03-29T10:28:04.840Z,48.97
2018-03-29T10:30:33.370Z,47.70
2018-03-29T10:33:02.534Z,49.91
2018-03-29T10:35:31.058Z,52.09
2018-03-29T10:37:59.614Z,46.30
2018-03-29T10:40:30.056Z,50.68
2018-03-29T10:42:58.563Z,49.94
2018-03-29T10:45:27.092Z,46.63
2018-03-29T10:47:59.629Z,41.75
2018-03-29T10:50:42.566Z,39.08
2018-03-29T10:53:13.207Z,37.65
2018-03-29T10:55:53.180Z,35.43
2018-03-29T10:58:27.903Z,39.12
2018-03-29T11:00:57.362Z,39.29
2018-03-29T11:03:26.506Z,41.46
2018-03-29T11:05:55.023Z,39.77
2018-03-29T11:08:33.456Z,35.33
2018-03-29T11:11:01.996Z,38.61
2018-03-29T11:13:33.757Z,37.21
2018-03-29T11:16:02.297Z,39.83
2018-03-29T11:18:53.148Z,35.39
2018-03-29T11:21:40.838Z,39.22
2018-03-29T11:24:09.589Z,41.20
2018-03-29T11:26:52.126Z,40.24
2018-03-29T11:29:24.391Z,36.01
2018-03-29T11:31:53.833Z,33.99
2018-03-29T11:34:32.739Z,36.49
2018-03-29T11:37:01.750Z,40.08
2018-03-29T11:39:30.267Z,37.76
2018-03-29T11:41:58.828Z,41.21
2018-03-29T11:44:29.231Z,42.57
2018-03-29T11:46:58.137Z,39.51
2018-03-29T11:49:38.236Z,41.46
2018-03-29T11:52:06.767Z,41.24
2018-03-29T11:54:37.208Z,41.13
2018-03-29T11:57:05.733Z,40.17
2018-03-29T11:59:52.461Z,39.01
2018-03-29T12:02:41.826Z,36.72
2018-03-29T12:05:10.912Z,39.24
2018-03-29T12:07:47.931Z,37.87
2018-03-29T12:10:37.380Z,37.69
2018-03-29T12:13:05.915Z,40.74
2018-03-29T12:15:34.471Z,40.93
2018-03-29T12:18:03.631Z,42.72
2018-03-29T12:20:32.154Z,42.54
2018-03-29T12:23:01.049Z,43.86
2018-03-29T12:25:53.348Z,43.05
2018-03-29T12:28:49.713Z,43.57
2018-03-29T12:31:18.252Z,41.83
2018-03-29T12:34:13.363Z,40.74
2018-03-29T12:36:42.951Z,37.84
2018-03-29T12:39:12.470Z,39.48
2018-03-29T12:42:01.950Z,37.85
2018-03-29T12:44:30.642Z,38.84
2018-03-29T12:47:02.477Z,42.65
2018-03-29T12:49:31.006Z,40.12
2018-03-29T12:51:59.582Z,41.28
2018-03-29T12:54:39.894Z,41.22
2018-03-29T12:57:25.199Z,42.37
2018-03-29T12:59:57.569Z,42.88
2018-03-29T13:02:26.092Z,42.90
2018-03-29T13:04:57.753Z,43.36
2018-03-29T13:07:26.318Z,44.29
2018-03-29T13:10:14.335Z,42.87
2018-03-29T13:12:44.782Z,44.03
2018-03-29T13:15:14.016Z,45.36
2018-03-29T13:18:00.830Z,44.65
2018-03-29T13:20:29.438Z,44.62
2018-03-29T13:22:57.949Z,43.35
2018-03-29T13:25:26.495Z,44.10
2018-03-29T13:27:57.885Z,43.31
2018-03-29T13:30:26.419Z,44.62
2018-03-29T13:32:56.443Z,43.57
2018-03-29T13:35:24.966Z,44.70
2018-03-29T13:37:57.303Z,45.61
2018-03-29T13:40:25.834Z,46.78
2018-03-29T13:42:57.861Z,46.61
2018-03-29T13:45:27.253Z,47.20
2018-03-29T13:48:05.183Z,46.85
2018-03-29T13:50:44.004Z,47.80
2018-03-29T13:53:16.409Z,47.44
2018-03-29T13:56:10.795Z,48.39
2018-03-29T13:59:09.206Z,48.90
2018-03-29T14:01:38.942Z,47.96
2018-03-29T14:04:14.018Z,47.72
2018-03-29T14:06:42.520Z,47.75
2018-03-29T14:09:13.005Z,47.13
2018-03-29T14:11:41.855Z,46.99
2018-03-29T14:14:18.206Z,46.63
2018-03-29T14:16:58.069Z,46.35
2018-03-29T14:19:26.594Z,47.81
2018-03-29T14:22:13.656Z,48.57
2018-03-29T14:24:59.226Z,50.67
2018-03-29T14:27:28.675Z,49.93
2018-03-29T14:29:57.288Z,50.93
2018-03-29T14:32:35.834Z,50.02
2018-03-29T14:35:25.716Z,51.75
2018-03-29T14:37:54.668Z,53.81
2018-03-29T14:40:35.986Z,52.46
2018-03-29T14:43:18.925Z,53.24
2018-03-29T14:45:47.456Z,54.54
2018-03-29T14:48:23.429Z,54.53
2018-03-29T14:50:51.951Z,57.36
2018-03-29T14:53:35.038Z,55.68
2018-03-29T14:56:04.483Z,54.39
2018-03-29T14:58:34.922Z,55.27
2018-03-29T15:01:08.518Z,56.73
2018-03-29T15:03:36.985Z,55.63
2018-03-29T15:06:29.556Z,57.07
2018-03-29T15:08:58.085Z,58.23
2018-03-29T15:11:35.901Z,58.64
2018-03-29T15:14:22.588Z,61.22
2018-03-29T15:16:51.494Z,63.44
2018-03-29T15:19:20.014Z,59.48
2018-03-29T15:21:48.780Z,61.89
2018-03-29T15:24:30.319Z,63.10
2018-03-29T15:27:02.580Z,66.57
2018-03-29T15:29:35.537Z,63.60
2018-03-29T15:32:15.129Z,63.48
2018-03-29T15:34:43.699Z,64.31
2018-03-29T15:37:16.073Z,63.97
2018-03-29T15:39:44.526Z,61.01
2018-03-29T15:42:13.264Z,62.34
2018-03-29T15:44:41.824Z,59.99
2018-03-29T15:47:10.306Z,58.36
2018-03-29T15:49:38.820Z,58.73
2018-03-29T15:52:07.335Z,59.03
2018-03-29T15:54:35.851Z,58.47
2018-03-29T15:57:16.474Z,58.35
2018-03-29T15:59:45.310Z,57.67
2018-03-29T16:02:24.755Z,57.16
2018-03-29T16:04:53.636Z,59.05
2018-03-29T16:07:22.165Z,57.92
2018-03-29T16:09:51.211Z,56.86
2018-03-29T16:12:19.727Z,58.51
2018-03-29T16:14:48.244Z,57.55
2018-03-29T16:17:16.750Z,58.14
2018-03-29T16:19:46.178Z,58.11
2018-03-29T16:22:16.143Z,58.03
2018-03-29T16:24:44.660Z,59.23
2018-03-29T16:27:17.081Z,57.97
2018-03-29T16:29:45.597Z,57.73
2018-03-29T16:32:14.128Z,57.79
2018-03-29T16:34:43.134Z,57.40
2018-03-29T16:37:25.822Z,58.61
2018-03-29T16:39:54.344Z,58.40
2018-03-29T16:42:32.669Z,58.95
2018-03-29T16:45:02.112Z,59.51
2018-03-29T16:47:38.337Z,59.36
2018-03-29T16:50:08.029Z,58.26
2018-03-29T16:52:48.098Z,58.63
2018-03-29T16:55:17.476Z,59.68
2018-03-29T16:57:48.269Z,60.53
2018-03-29T17:00:18.674Z,61.64
2018-03-29T17:02:56.155Z,61.86
2018-03-29T17:05:28.022Z,61.79
2018-03-29T17:07:56.539Z,62.32
2018-03-29T17:10:37.469Z,63.30
2018-03-29T17:13:07.023Z,63.97
2018-03-29T17:15:43.994Z,66.17
2018-03-29T17:18:12.513Z,65.91
2018-03-29T17:20:49.361Z,67.85
2018-03-29T17:23:38.542Z,67.64
2018-03-29T17:26:07.274Z,67.33
2018-03-29T17:28:40.543Z,68.69
2018-03-29T17:31:09.253Z,70.02
2018-03-29T17:33:42.444Z,69.94
2018-03-29T17:36:22.533Z,70.86
2018-03-29T17:41:38.010Z,71.59
2018-03-29T17:44:06.510Z,71.51
2018-03-29T17:46:35.053Z,72.23
2018-03-29T17:49:04.453Z,73.16
2018-03-29T17:51:50.064Z,73.29
2018-03-29T17:54:43.395Z,72.34
2018-03-29T17:57:11.919Z,72.61
2018-03-29T17:59:55.667Z,72.77
2018-03-29T18:02:46.500Z,73.27
2018-03-29T18:05:15.001Z,72.92
2018-03-29T18:07:43.794Z,72.96
2018-03-29T18:10:12.328Z,73.54
2018-03-29T18:12:48.081Z,73.28
2018-03-29T18:15:21.997Z,74.44
2018-03-29T18:17:57.673Z,74.77
2018-03-29T18:20:31.638Z,74.80
2018-03-29T18:23:00.153Z,75.10
2018-03-29T18:25:28.677Z,75.71
2018-03-29T18:28:04.665Z,75.78
2018-03-29T18:30:33.179Z,75.44
2018-03-29T18:33:12.571Z,76.10
2018-03-29T18:35:58.025Z,75.90
2018-03-29T18:38:26.546Z,75.57
2018-03-29T18:40:55.142Z,75.55
2018-03-29T18:43:23.686Z,75.09
2018-03-29T18:45:53.081Z,75.64
2018-03-29T18:48:21.581Z,75.54
2018-03-29T18:51:00.878Z,74.94
2018-03-29T18:53:29.382Z,74.63
2018-03-29T18:55:57.894Z,75.02
2018-03-29T18:58:26.542Z,75.20
2018-03-29T19:01:03.099Z,75.39
2018-03-29T19:03:31.725Z,75.21
2018-03-29T19:06:17.292Z,75.42
2018-03-29T19:08:45.805Z,75.96
2018-03-29T19:11:19.857Z,76.44
2018-03-29T19:14:00.867Z,76.18
2018-03-29T19:16:44.672Z,76.62
2018-03-29T19:19:13.189Z,76.03
2018-03-29T19:21:57.783Z,75.78
2018-03-29T19:24:41.526Z,76.20
2018-03-29T19:27:10.047Z,76.60
2018-03-29T19:29:46.497Z,76.37
2018-03-29T19:32:15.047Z,76.63
2018-03-29T19:35:00.658Z,77.19
2018-03-29T19:37:32.559Z,77.03
2018-03-29T19:40:01.864Z,76.08
2018-03-29T19:42:34.291Z,77.74
2018-03-29T19:45:02.777Z,77.96
2018-03-29T19:47:38.906Z,77.90
2018-03-29T19:50:07.428Z,78.37
2018-03-29T19:52:45.330Z,79.36
2018-03-29T19:55:13.854Z,79.36
2018-03-29T19:57:55.605Z,78.40
2018-03-29T20:00:25.234Z,79.64
2018-03-29T20:03:01.358Z,79.69
2018-03-29T20:05:29.977Z,80.00
2018-03-29T20:08:01.846Z,79.56
2018-03-29T20:10:40.160Z,79.99
2018-03-29T20:13:08.646Z,79.58
2018-03-29T20:15:49.447Z,80.69
2018-03-29T20:18:18.576Z,80.90
2018-03-29T20:20:57.597Z,81.42
2018-03-29T20:23:30.501Z,80.70
2018-03-29T20:26:00.942Z,82.52
2018-03-29T20:28:44.941Z,83.61
2018-03-29T20:31:13.579Z,83.64
2018-03-29T20:34:04.398Z,83.92
2018-03-29T20:36:40.829Z,84.64
2018-03-29T20:39:09.363Z,84.89
2018-03-29T20:41:41.316Z,84.79
2018-03-29T20:44:10.044Z,84.17
2018-03-29T20:46:38.577Z,85.48
2018-03-29T20:49:07.095Z,85.30
2018-03-29T20:51:35.649Z,85.73
2018-03-29T20:54:04.181Z,84.46
2018-03-29T20:56:36.576Z,84.61
2018-03-29T20:59:05.136Z,85.21
2018-03-29T21:01:35.563Z,86.68
2018-03-29T21:04:04.149Z,86.18
2018-03-29T21:06:33.391Z,88.01
2018-03-29T21:09:01.936Z,86.99
2018-03-29T21:11:48.050Z,87.42
2018-03-29T21:14:16.545Z,87.78
2018-03-29T21:16:50.749Z,88.50
2018-03-29T21:19:19.262Z,88.62
2018-03-29T21:22:02.154Z,89.18
2018-03-29T21:24:38.267Z,88.26
2018-03-29T21:27:06.782Z,87.66
2018-03-29T21:29:48.072Z,87.70
2018-03-29T21:32:16.559Z,88.57
2018-03-29T21:34:52.893Z,89.44
2018-03-29T21:37:31.165Z,89.20
2018-03-29T21:39:59.864Z,88.09
2018-03-29T21:42:35.365Z,88.82
2018-03-29T21:45:03.959Z,88.98
2018-03-29T21:47:32.536Z,89.91
2018-03-29T21:50:01.905Z,90.08
2018-03-29T21:52:34.956Z,90.80
2018-03-29T21:55:07.614Z,91.01
2018-03-29T21:57:38.474Z,89.34
2018-03-29T22:00:07.837Z,89.92
2018-03-29T22:02:44.903Z,89.96
2018-03-29T22:05:13.445Z,90.11
2018-03-29T22:07:55.322Z,89.43
2018-03-29T22:10:40.989Z,89.98
2018-03-29T22:13:09.576Z,91.58
2018-03-29T22:15:51.632Z,91.26
2018-03-29T22:18:45.266Z,91.06
2018-03-29T22:21:13.774Z,90.88
2018-03-29T22:23:48.394Z,91.84
2018-03-29T22:26:16.906Z,93.17
2018-03-29T22:28:45.480Z,92.46
2018-03-29T22:31:14.183Z,91.97
2018-03-29T22:33:46.027Z,91.07
2018-03-29T22:36:14.537Z,90.82
2018-03-29T22:39:01.430Z,91.36
2018-03-29T22:41:34.511Z,91.09
2018-03-29T22:44:03.042Z,90.62
2018-03-29T22:47:00.718Z,90.29
2018-03-29T22:49:33.022Z,91.62
2018-03-29T22:52:01.551Z,92.73
2018-03-29T22:54:42.760Z,92.87
2018-03-29T22:57:13.162Z,91.75
2018-03-29T23:00:01.134Z,92.02
2018-03-29T23:02:35.004Z,92.83
2018-03-29T23:05:03.685Z,92.44
2018-03-29T23:07:32.219Z,93.72
2018-03-29T23:10:01.662Z,93.23
2018-03-29T23:12:50.948Z,92.63
2018-03-29T23:15:19.510Z,92.86
2018-03-29T23:18:01.281Z,91.95
2018-03-29T23:21:00.614Z,92.04
2018-03-29T23:23:38.230Z,92.68
2018-03-29T23:26:06.702Z,95.05
2018-03-29T23:28:40.553Z,95.87
2018-03-29T23:31:09.077Z,95.47
2018-03-29T23:33:43.452Z,94.96
2018-03-29T23:36:11.978Z,95.17
2018-03-29T23:38:47.929Z,94.90
2018-03-29T23:41:17.410Z,95.02
2018-03-29T23:43:45.994Z,94.58
2018-03-29T23:46:14.762Z,93.90
2018-03-29T23:48:43.296Z,93.53
2018-03-29T23:51:11.846Z,93.33
2018-03-29T23:53:42.301Z,93.05
2018-03-29T23:56:10.892Z,93.11
2018-03-29T23:58:39.706Z,93.12
